Time,TemperatureF,DewpointF,PressureIn,WindDirection,WindDirectionDegrees,WindSpeedMPH,WindSpeedGustMPH,Humidity,HourlyPrecipIn,Conditions,Clouds,dailyrainin,SoftwareType,DateUTC
2013-07-16 00:00:00,0.0,0.0,30.23,North,0,0.0,0.0,0,0.00,,---,0.00,VWS V14.01,2013-07-16 04:00:00,
2013-07-16 00:30:00,0.0,0.0,30.23,North,0,0.0,0.0,0,0.00,,---,0.00,VWS V14.01,2013-07-16 04:30:00,
2013-07-16 01:00:00,0.0,0.0,30.23,North,0,0.0,0.0,0,0.00,,---,0.00,VWS V14.01,2013-07-16 05:00:00,
2013-07-16 01:30:00,80.2,72.7,30.22,SSE,167,0.0,0.0,78,0.00,,---,0.00,VWS V14.01,2013-07-16 05:30:00,
2013-07-16 02:00:00,80.1,71.9,30.22,SSE,163,0.0,0.0,76,0.00,,---,0.00,VWS V14.01,2013-07-16 06:00:00,
2013-07-16 02:30:00,80.0,72.2,30.22,SSE,157,0.0,0.0,77,0.00,,---,0.00,VWS V14.01,2013-07-16 06:30:00,
2013-07-16 03:00:00,79.8,71.9,30.21,SE,129,0.0,0.0,77,0.00,,---,0.00,VWS V14.01,2013-07-16 07:00:00,
2013-07-16 03:30:00,79.6,71.8,30.21,SE,129,0.0,0.0,77,0.00,,---,0.00,VWS V14.01,2013-07-16 07:30:00,
2013-07-16 04:00:00,79.2,71.4,30.21,SE,129,0.0,0.0,77,0.00,,---,0.00,VWS V14.01,2013-07-16 08:00:00,
2013-07-16 04:30:00,76.8,70.2,30.21,NNW,331,0.0,0.0,80,0.00,,---,0.00,VWS V14.01,2013-07-16 08:30:00,
2013-07-16 05:00:00,76.2,70.3,30.21,NNW,330,0.0,0.0,82,0.00,,---,0.00,VWS V14.01,2013-07-16 09:00:00,
2013-07-16 05:30:00,75.8,70.3,30.22,NNW,330,0.0,0.0,83,0.00,,---,0.00,VWS V14.01,2013-07-16 09:30:00,
2013-07-16 06:00:00,75.5,70.0,30.22,NNW,331,0.0,0.0,83,0.00,,---,0.00,VWS V14.01,2013-07-16 10:00:00,
2013-07-16 06:30:00,75.2,70.0,30.23,NNW,330,0.0,0.0,84,0.00,,---,0.00,VWS V14.01,2013-07-16 10:30:00,
2013-07-16 07:00:00,75.6,70.8,30.23,North,9,0.0,0.0,85,0.00,,---,0.00,VWS V14.01,2013-07-16 11:00:00,
2013-07-16 07:30:00,76.8,71.6,30.24,NNE,17,0.0,0.0,84,0.00,,---,0.00,VWS V14.01,2013-07-16 11:30:00,
2013-07-16 08:00:00,78.5,72.9,30.24,NE,50,0.0,0.0,83,0.00,,---,0.00,VWS V14.01,2013-07-16 12:00:00,
2013-07-16 08:30:00,79.9,73.2,30.25,NE,50,0.0,0.0,80,0.00,,---,0.00,VWS V14.01,2013-07-16 12:30:00,
2013-07-16 09:00:00,81.0,73.1,30.25,NE,49,0.0,0.0,77,0.00,,---,0.00,VWS V14.01,2013-07-16 13:00:00,
2013-07-16 09:30:00,82.0,72.9,30.25,NE,53,0.0,0.0,74,0.00,,---,0.00,VWS V14.01,2013-07-16 13:30:00,
2013-07-16 10:00:00,82.8,73.7,30.24,ENE,76,0.0,0.0,74,0.00,,---,0.00,VWS V14.01,2013-07-16 14:00:00,
2013-07-16 10:30:00,82.7,73.6,30.24,ESE,104,0.0,0.0,74,0.00,,---,0.00,VWS V14.01,2013-07-16 14:30:00,
2013-07-16 11:00:00,83.1,74.0,30.24,ESE,111,0.0,0.0,74,0.00,,---,0.00,VWS V14.01,2013-07-16 15:00:00,
2013-07-16 11:30:00,83.2,73.7,30.24,ESE,107,0.0,0.0,73,0.00,,---,0.00,VWS V14.01,2013-07-16 15:30:00,
2013-07-16 11:42:00,83.2,74.1,30.24,SSE,160,0.0,0.0,74,0.00,,---,0.00,VWS V14.01,2013-07-16 15:42:00,
2013-07-16 11:47:00,83.2,73.7,30.23,SSE,167,0.0,0.0,73,0.00,,---,0.00,VWS V14.01,2013-07-16 15:47:00,
2013-07-16 11:52:00,83.0,73.5,30.23,SE,124,0.0,0.0,73,0.00,,---,0.00,VWS V14.01,2013-07-16 15:52:00,
2013-07-16 11:57:00,83.2,73.7,30.23,SE,145,0.0,0.0,73,0.00,,---,0.00,VWS V14.01,2013-07-16 15:57:00,
2013-07-16 12:00:00,83.3,73.8,30.24,ESE,119,0.0,0.0,73,0.00,,---,0.00,VWS V14.01,2013-07-16 16:00:00,
2013-07-16 12:02:00,83.4,73.8,30.23,SE,138,0.0,0.0,73,0.00,,---,0.00,VWS V14.01,2013-07-16 16:02:00,
2013-07-16 12:07:00,83.3,73.8,30.23,ESE,123,0.0,0.0,73,0.00,,---,0.00,VWS V14.01,2013-07-16 16:07:00,
2013-07-16 12:12:00,83.4,73.4,30.23,SE,141,0.0,0.0,72,0.00,,---,0.00,VWS V14.01,2013-07-16 16:12:00,
2013-07-16 12:17:00,83.4,73.4,30.23,SE,138,0.0,0.0,72,0.00,,---,0.00,VWS V14.01,2013-07-16 16:17:00,
2013-07-16 12:23:00,83.5,73.5,30.24,ESE,121,0.0,0.0,72,0.00,,---,0.00,VWS V14.01,2013-07-16 16:23:00,
2013-07-16 12:28:00,83.7,73.7,30.23,SE,132,0.0,0.0,72,0.00,,---,0.00,VWS V14.01,2013-07-16 16:28:00,
2013-07-16 12:30:00,83.8,73.8,30.23,SE,142,0.0,0.0,72,0.00,,---,0.00,VWS V14.01,2013-07-16 16:30:00,
2013-07-16 12:33:00,83.8,73.8,30.23,SE,126,0.0,0.0,72,0.00,,---,0.00,VWS V14.01,2013-07-16 16:33:00,
2013-07-16 12:38:00,83.9,73.9,30.23,SE,134,0.0,0.0,72,0.00,,---,0.00,VWS V14.01,2013-07-16 16:38:00,
2013-07-16 12:43:00,84.0,73.6,30.24,ESE,121,0.0,0.0,71,0.00,,---,0.00,VWS V14.01,2013-07-16 16:43:00,
2013-07-16 12:48:00,83.6,73.2,30.23,SE,137,0.0,0.0,71,0.00,,---,0.00,VWS V14.01,2013-07-16 16:48:00,
2013-07-16 12:53:00,83.4,73.0,30.23,SSE,155,0.0,0.0,71,0.00,,---,0.00,VWS V14.01,2013-07-16 16:53:00,
2013-07-16 12:58:00,83.6,73.2,30.23,SSE,147,0.0,0.0,71,0.00,,---,0.00,VWS V14.01,2013-07-16 16:58:00,
2013-07-16 13:00:00,83.5,73.1,30.23,SSE,154,0.0,0.0,71,0.00,,---,0.00,VWS V14.01,2013-07-16 17:00:00,
2013-07-16 13:03:00,83.2,72.8,30.23,South,175,0.0,0.0,71,0.00,,---,0.00,VWS V14.01,2013-07-16 17:03:00,
2013-07-16 13:08:00,83.1,73.1,30.23,SE,131,0.0,0.0,72,0.00,,---,0.00,VWS V14.01,2013-07-16 17:08:00,
2013-07-16 13:13:00,83.4,73.4,30.23,South,175,0.0,0.0,72,0.00,,---,0.00,VWS V14.01,2013-07-16 17:13:00,
2013-07-16 13:19:00,83.5,73.1,30.23,SSE,165,0.0,0.0,71,0.00,,---,0.00,VWS V14.01,2013-07-16 17:19:00,
2013-07-16 13:24:00,83.8,73.4,30.23,SE,129,0.0,0.0,71,0.00,,---,0.00,VWS V14.01,2013-07-16 17:24:00,
2013-07-16 13:29:00,83.9,73.1,30.23,SE,129,0.0,0.0,70,0.00,,---,0.00,VWS V14.01,2013-07-16 17:29:00,
2013-07-16 13:30:00,83.9,73.1,30.23,SE,140,0.0,0.0,70,0.00,,---,0.00,VWS V14.01,2013-07-16 17:30:00,
2013-07-16 13:34:00,83.8,73.0,30.23,SSE,164,0.0,0.0,70,0.00,,---,0.00,VWS V14.01,2013-07-16 17:34:00,
2013-07-16 13:39:00,83.6,73.2,30.23,SE,128,0.0,0.0,71,0.00,,---,0.00,VWS V14.01,2013-07-16 17:39:00,
2013-07-16 13:44:00,83.5,72.7,30.23,South,182,0.0,0.0,70,0.00,,---,0.00,VWS V14.01,2013-07-16 17:44:00,
2013-07-16 13:49:00,83.5,73.1,30.22,South,175,0.0,0.0,71,0.00,,---,0.00,VWS V14.01,2013-07-16 17:49:00,
2013-07-16 13:54:00,83.8,73.4,30.22,ESE,121,0.0,0.0,71,0.00,,---,0.00,VWS V14.01,2013-07-16 17:54:00,
2013-07-16 13:59:00,83.9,73.1,30.22,SSE,151,0.0,0.0,70,0.00,,---,0.00,VWS V14.01,2013-07-16 17:59:00,
2013-07-16 14:00:00,83.9,73.1,30.22,SE,145,0.0,0.0,70,0.00,,---,0.00,VWS V14.01,2013-07-16 18:00:00,
2013-07-16 14:04:00,83.7,72.5,30.22,SE,130,0.0,0.0,69,0.00,,---,0.00,VWS V14.01,2013-07-16 18:04:00,
2013-07-16 14:09:00,83.6,72.4,30.22,SSE,167,0.0,0.0,69,0.00,,---,0.00,VWS V14.01,2013-07-16 18:09:00,
2013-07-16 14:14:00,83.4,72.2,30.22,SSE,165,0.0,0.0,69,0.00,,---,0.00,VWS V14.01,2013-07-16 18:14:00,
2013-07-16 14:19:00,83.6,72.4,30.22,SSE,163,0.0,0.0,69,0.00,,---,0.00,VWS V14.01,2013-07-16 18:19:00,
2013-07-16 14:24:00,83.7,72.5,30.22,SE,143,0.0,0.0,69,0.00,,---,0.00,VWS V14.01,2013-07-16 18:24:00,
2013-07-16 14:29:00,83.6,72.4,30.21,SSE,150,0.0,0.0,69,0.00,,---,0.00,VWS V14.01,2013-07-16 18:29:00,
2013-07-16 14:30:00,83.6,72.4,30.21,South,170,0.0,0.0,69,0.00,,---,0.00,VWS V14.01,2013-07-16 18:30:00,
2013-07-16 14:34:00,83.6,72.4,30.21,South,172,0.0,0.0,69,0.00,,---,0.00,VWS V14.01,2013-07-16 18:34:00,
2013-07-16 14:39:00,83.3,72.5,30.21,South,175,0.0,0.0,70,0.00,,---,0.00,VWS V14.01,2013-07-16 18:39:00,
2013-07-16 14:44:00,83.1,71.9,30.21,SSE,163,0.0,0.0,69,0.00,,---,0.00,VWS V14.01,2013-07-16 18:44:00,
2013-07-16 14:49:00,83.0,72.2,30.21,South,181,0.0,0.0,70,0.00,,---,0.00,VWS V14.01,2013-07-16 18:49:00,
2013-07-16 14:54:00,83.1,72.3,30.21,South,180,0.0,0.0,70,0.00,,---,0.00,VWS V14.01,2013-07-16 18:54:00,
2013-07-16 14:59:00,83.2,72.4,30.20,SSE,166,0.0,0.0,70,0.00,,---,0.00,VWS V14.01,2013-07-16 18:59:00,
2013-07-16 15:00:00,83.2,72.4,30.20,SSW,193,0.0,0.0,70,0.00,,---,0.00,VWS V14.01,2013-07-16 19:00:00,
2013-07-16 15:04:00,82.9,71.7,30.21,SSE,162,0.0,0.0,69,0.00,,---,0.00,VWS V14.01,2013-07-16 19:04:00,
2013-07-16 15:09:00,83.0,71.8,30.21,South,178,0.0,0.0,69,0.00,,---,0.00,VWS V14.01,2013-07-16 19:09:00,
2013-07-16 15:14:00,83.0,72.2,30.21,SSW,194,0.0,0.0,70,0.00,,---,0.00,VWS V14.01,2013-07-16 19:14:00,
2013-07-16 15:19:00,82.9,72.1,30.21,South,187,0.0,0.0,70,0.00,,---,0.00,VWS V14.01,2013-07-16 19:19:00,
2013-07-16 15:25:00,82.8,72.0,30.21,South,184,0.0,0.0,70,0.00,,---,0.00,VWS V14.01,2013-07-16 19:25:00,
2013-07-16 15:30:00,82.7,71.9,30.21,South,185,0.0,0.0,70,0.00,,---,0.00,VWS V14.01,2013-07-16 19:30:00,
2013-07-16 15:35:00,82.8,72.0,30.21,SSW,192,0.0,0.0,70,0.00,,---,0.00,VWS V14.01,2013-07-16 19:35:00,
2013-07-16 15:40:00,82.9,72.1,30.21,South,172,0.0,0.0,70,0.00,,---,0.00,VWS V14.01,2013-07-16 19:40:00,
2013-07-16 15:45:00,82.9,72.5,30.20,South,185,0.0,0.0,71,0.00,,---,0.00,VWS V14.01,2013-07-16 19:45:00,
2013-07-16 15:50:00,82.7,72.3,30.20,South,183,0.0,0.0,71,0.00,,---,0.00,VWS V14.01,2013-07-16 19:50:00,
2013-07-16 15:55:00,82.7,72.3,30.20,South,178,0.0,0.0,71,0.00,,---,0.00,VWS V14.01,2013-07-16 19:55:00,
2013-07-16 16:00:00,82.8,72.9,30.20,South,178,0.0,0.0,72,0.00,,---,0.00,VWS V14.01,2013-07-16 20:00:00,
2013-07-16 16:05:00,82.8,72.4,30.20,SSE,159,0.0,0.0,71,0.00,,---,0.00,VWS V14.01,2013-07-16 20:05:00,
2013-07-16 16:10:00,82.8,72.0,30.20,South,181,0.0,0.0,70,0.00,,---,0.00,VWS V14.01,2013-07-16 20:10:00,
2013-07-16 16:15:00,82.9,72.5,30.20,South,190,0.0,0.0,71,0.00,,---,0.00,VWS V14.01,2013-07-16 20:15:00,
2013-07-16 16:20:00,83.0,72.2,30.19,South,186,0.0,0.0,70,0.00,,---,0.00,VWS V14.01,2013-07-16 20:20:00,
2013-07-16 16:25:00,83.1,72.3,30.20,SSW,202,0.0,0.0,70,0.00,,---,0.00,VWS V14.01,2013-07-16 20:25:00,
2013-07-16 16:30:00,83.0,71.8,30.19,SSW,196,0.0,0.0,69,0.00,,---,0.00,VWS V14.01,2013-07-16 20:30:00,
2013-07-16 16:35:00,83.1,71.9,30.20,South,184,0.0,0.0,69,0.00,,---,0.00,VWS V14.01,2013-07-16 20:35:00,
2013-07-16 16:40:00,83.1,72.3,30.20,SSW,210,0.0,0.0,70,0.00,,---,0.00,VWS V14.01,2013-07-16 20:40:00,
2013-07-16 16:45:00,82.9,72.1,30.19,SSW,202,0.0,0.0,70,0.00,,---,0.00,VWS V14.01,2013-07-16 20:45:00,
2013-07-16 16:50:00,82.9,72.1,30.19,SW,214,0.0,0.0,70,0.00,,---,0.00,VWS V14.01,2013-07-16 20:50:00,
2013-07-16 16:55:00,83.0,72.2,30.19,SSW,196,0.0,0.0,70,0.00,,---,0.00,VWS V14.01,2013-07-16 20:55:00,
2013-07-16 17:00:00,82.8,71.6,30.19,South,190,0.0,0.0,69,0.00,,---,0.00,VWS V14.01,2013-07-16 21:00:00,
2013-07-16 17:05:00,85.0,77.0,30.19,SE,126,0.0,3.0,77,0.00,,---,0.00,VWS V14.01,2013-07-16 21:05:00,
2013-07-16 17:10:00,84.7,76.3,30.19,ESE,102,1.0,6.0,76,0.00,,---,0.00,VWS V14.01,2013-07-16 21:10:00,
2013-07-16 17:15:00,84.6,76.2,30.19,ESE,103,3.0,6.0,76,0.00,,---,0.00,VWS V14.01,2013-07-16 21:15:00,
2013-07-16 17:20:00,84.5,76.1,30.19,ENE,67,2.0,6.0,76,0.00,,---,0.00,VWS V14.01,2013-07-16 21:20:00,
2013-07-16 17:25:00,84.5,76.5,30.19,SE,136,1.0,6.0,77,0.00,,---,0.00,VWS V14.01,2013-07-16 21:25:00,
2013-07-16 17:30:00,84.5,76.1,30.19,SSE,159,2.0,3.0,76,0.00,,---,0.00,VWS V14.01,2013-07-16 21:30:00,
2013-07-16 17:35:00,84.5,76.5,30.18,ESE,121,0.0,6.0,77,0.00,,---,0.00,VWS V14.01,2013-07-16 21:35:00,
2013-07-16 17:40:00,84.4,76.0,30.18,SE,128,0.0,6.0,76,0.00,,---,0.00,VWS V14.01,2013-07-16 21:40:00,
2013-07-16 17:45:00,84.3,75.9,30.18,SE,133,1.0,6.0,76,0.00,,---,0.00,VWS V14.01,2013-07-16 21:45:00,
2013-07-16 17:50:00,84.3,75.9,30.18,WSW,254,2.0,6.0,76,0.00,,---,0.00,VWS V14.01,2013-07-16 21:50:00,
2013-07-16 17:55:00,84.2,75.8,30.18,ESE,114,0.0,6.0,76,0.00,,---,0.00,VWS V14.01,2013-07-16 21:55:00,
2013-07-16 18:00:00,84.1,75.7,30.17,ENE,78,0.0,2.0,76,0.00,,---,0.00,VWS V14.01,2013-07-16 22:00:00,
2013-07-16 18:05:00,84.1,75.7,30.17,ESE,115,1.0,4.0,76,0.00,,---,0.00,VWS V14.01,2013-07-16 22:05:00,
2013-07-16 18:10:00,84.0,75.2,30.17,SW,235,0.0,4.0,75,0.00,,---,0.00,VWS V14.01,2013-07-16 22:10:00,
2013-07-16 18:15:00,84.0,75.6,30.17,WSW,240,0.0,4.0,76,0.00,,---,0.00,VWS V14.01,2013-07-16 22:15:00,
2013-07-16 18:20:00,84.0,75.6,30.17,SSE,160,0.0,4.0,76,0.00,,---,0.00,VWS V14.01,2013-07-16 22:20:00,
2013-07-16 18:26:00,83.9,75.5,30.17,SE,143,1.0,4.0,76,0.00,,---,0.00,VWS V14.01,2013-07-16 22:26:00,
2013-07-16 18:30:00,83.9,75.5,30.17,SSE,151,0.0,4.0,76,0.00,,---,0.00,VWS V14.01,2013-07-16 22:30:00,
2013-07-16 18:31:00,83.9,75.5,30.17,SE,128,2.0,3.0,76,0.00,,---,0.00,VWS V14.01,2013-07-16 22:31:00,
2013-07-16 18:36:00,83.8,75.4,30.17,WSW,258,0.0,3.0,76,0.00,,---,0.00,VWS V14.01,2013-07-16 22:36:00,
2013-07-16 18:41:00,83.7,74.9,30.17,West,259,2.0,3.0,75,0.00,,---,0.00,VWS V14.01,2013-07-16 22:41:00,
2013-07-16 18:46:00,83.7,74.9,30.18,NNW,336,0.0,3.0,75,0.00,,---,0.00,VWS V14.01,2013-07-16 22:46:00,
2013-07-16 18:51:00,83.7,74.9,30.18,West,277,0.0,4.0,75,0.00,,---,0.00,VWS V14.01,2013-07-16 22:51:00,
2013-07-16 18:56:00,83.6,74.8,30.18,NE,36,1.0,4.0,75,0.00,,---,0.00,VWS V14.01,2013-07-16 22:56:00,
2013-07-16 19:00:00,83.6,75.2,30.18,NE,36,0.0,4.0,76,0.00,,---,0.00,VWS V14.01,2013-07-16 23:00:00,
2013-07-16 19:01:00,83.6,75.2,30.18,NE,36,0.0,0.0,76,0.00,,---,0.00,VWS V14.01,2013-07-16 23:01:00,
2013-07-16 19:06:00,83.6,74.8,30.18,WSW,251,1.0,3.0,75,0.00,,---,0.00,VWS V14.01,2013-07-16 23:06:00,
2013-07-16 19:11:00,83.6,75.2,30.18,West,265,0.0,3.0,76,0.00,,---,0.00,VWS V14.01,2013-07-16 23:11:00,
2013-07-16 19:16:00,83.6,75.2,30.18,East,83,3.0,3.0,76,0.00,,---,0.00,VWS V14.01,2013-07-16 23:16:00,
2013-07-16 19:21:00,83.4,74.7,30.18,SE,127,1.0,3.0,75,0.00,,---,0.00,VWS V14.01,2013-07-16 23:21:00,
2013-07-16 19:26:00,83.3,74.6,30.18,SSW,204,0.0,3.0,75,0.00,,---,0.00,VWS V14.01,2013-07-16 23:26:00,
2013-07-16 19:30:00,83.3,74.6,30.18,West,263,0.0,4.0,75,0.00,,---,0.00,VWS V14.01,2013-07-16 23:30:00,
2013-07-16 19:31:00,83.3,74.6,30.18,West,263,0.0,0.0,75,0.00,,---,0.00,VWS V14.01,2013-07-16 23:31:00,
2013-07-16 20:00:00,83.1,74.8,30.18,SSE,167,0.0,5.0,76,0.00,,---,0.00,VWS V14.01,2013-07-17 00:00:00,
2013-07-16 20:30:00,81.4,73.1,30.18,WSW,244,3.0,3.0,76,0.00,,---,0.00,VWS V14.01,2013-07-17 00:30:00,
2013-07-16 21:00:00,80.8,74.1,30.18,WSW,238,0.0,6.0,80,0.00,,---,0.00,VWS V14.01,2013-07-17 01:00:00,
2013-07-16 21:13:00,80.0,74.4,30.18,WSW,250,0.0,1.0,83,0.00,,---,0.00,VWS V14.01,2013-07-17 01:13:00,
2013-07-16 21:26:00,79.6,74.3,30.19,WSW,237,0.0,0.0,84,0.00,,---,0.00,VWS V14.01,2013-07-17 01:26:00,
2013-07-16 21:30:00,79.4,74.5,30.19,WSW,252,0.0,1.0,85,0.00,,---,0.00,VWS V14.01,2013-07-17 01:30:00,
2013-07-16 21:31:00,79.4,74.5,30.19,SW,236,0.0,1.0,85,0.00,,---,0.00,VWS V14.01,2013-07-17 01:31:00,
2013-07-16 21:36:00,79.3,74.4,30.19,SW,234,0.0,1.0,85,0.00,,---,0.00,VWS V14.01,2013-07-17 01:36:00,
2013-07-16 21:41:00,79.2,74.7,30.19,SW,234,0.0,1.0,86,0.00,,---,0.00,VWS V14.01,2013-07-17 01:41:00,
2013-07-16 21:46:00,79.0,74.5,30.19,SW,234,0.0,1.0,86,0.00,,---,0.00,VWS V14.01,2013-07-17 01:46:00,
2013-07-16 21:51:00,78.9,74.7,30.20,SW,227,1.0,1.0,87,0.00,,---,0.00,VWS V14.01,2013-07-17 01:51:00,
2013-07-16 21:56:00,78.7,74.5,30.20,WSW,238,0.0,2.0,87,0.00,,---,0.00,VWS V14.01,2013-07-17 01:56:00,
2013-07-16 22:00:00,78.5,74.3,30.20,WSW,239,1.0,2.0,87,0.00,,---,0.00,VWS V14.01,2013-07-17 02:00:00,
2013-07-16 22:01:00,78.5,74.3,30.20,WSW,237,1.0,2.0,87,0.00,,---,0.00,VWS V14.01,2013-07-17 02:01:00,
2013-07-16 22:06:00,78.4,74.6,30.20,WSW,241,0.0,2.0,88,0.00,,---,0.00,VWS V14.01,2013-07-17 02:06:00,
2013-07-16 22:11:00,78.3,74.5,30.20,SW,233,0.0,2.0,88,0.00,,---,0.00,VWS V14.01,2013-07-17 02:11:00,
2013-07-16 22:16:00,78.3,74.5,30.20,SW,234,0.0,2.0,88,0.00,,---,0.00,VWS V14.01,2013-07-17 02:16:00,
2013-07-16 22:21:00,78.1,74.3,30.20,WSW,247,1.0,2.0,88,0.00,,---,0.00,VWS V14.01,2013-07-17 02:21:00,
2013-07-16 22:26:00,78.1,74.3,30.20,WSW,241,1.0,2.0,88,0.00,,---,0.00,VWS V14.01,2013-07-17 02:26:00,
2013-07-16 22:30:00,78.0,74.2,30.20,SW,230,0.0,2.0,88,0.00,,---,0.00,VWS V14.01,2013-07-17 02:30:00,
2013-07-16 22:31:00,78.0,74.2,30.20,SW,229,1.0,1.0,88,0.00,,---,0.00,VWS V14.01,2013-07-17 02:31:00,
2013-07-16 22:36:00,78.0,74.5,30.20,WSW,246,1.0,1.0,89,0.00,,---,0.00,VWS V14.01,2013-07-17 02:36:00,
2013-07-16 22:41:00,77.9,74.4,30.20,West,260,0.0,2.0,89,0.00,,---,0.00,VWS V14.01,2013-07-17 02:41:00,
2013-07-16 22:46:00,77.8,74.3,30.20,WSW,246,0.0,2.0,89,0.00,,---,0.00,VWS V14.01,2013-07-17 02:46:00,
2013-07-16 22:51:00,77.7,74.2,30.20,SW,234,0.0,2.0,89,0.00,,---,0.00,VWS V14.01,2013-07-17 02:51:00,
2013-07-16 22:56:00,77.7,74.2,30.20,SW,234,0.0,2.0,89,0.00,,---,0.00,VWS V14.01,2013-07-17 02:56:00,
2013-07-16 23:00:00,77.7,74.2,30.20,SW,234,0.0,2.0,89,0.00,,---,0.00,VWS V14.01,2013-07-17 03:00:00,
2013-07-16 23:01:00,77.7,74.2,30.20,SW,234,0.0,0.0,89,0.00,,---,0.00,VWS V14.01,2013-07-17 03:01:00,
2013-07-16 23:06:00,77.7,74.2,30.20,SW,234,0.0,0.0,89,0.00,,---,0.00,VWS V14.01,2013-07-17 03:06:00,
2013-07-16 23:11:00,77.7,74.2,30.20,SW,234,0.0,0.0,89,0.00,,---,0.00,VWS V14.01,2013-07-17 03:11:00,
2013-07-16 23:16:00,77.7,74.2,30.20,SW,234,0.0,0.0,89,0.00,,---,0.00,VWS V14.01,2013-07-17 03:16:00,
2013-07-16 23:21:00,77.7,74.2,30.20,SW,234,0.0,0.0,89,0.00,,---,0.00,VWS V14.01,2013-07-17 03:21:00,
2013-07-16 23:26:00,77.7,74.2,30.20,SW,234,0.0,0.0,89,0.00,,---,0.00,VWS V14.01,2013-07-17 03:26:00,
2013-07-16 23:30:00,77.7,74.2,30.20,SW,234,0.0,0.0,89,0.00,,---,0.00,VWS V14.01,2013-07-17 03:30:00,